Madison, MN

12:11 AM CDT on September 19, 2019 (GMT -0500)
Madison-Lac Qui Parle County

Weather History for KDXX - July, 2019

Change the Weather History Date:

Sunday, July 21, 2019

  Actual Average (WUND) Record (WUND)
Temperature  
Mean Temperature 69 °F -  
Max Temperature 78 °F - - (-1)
Min Temperature 60 °F - - (-1)
Cooling Degree Days 4    
Growing Degree Days 19 (Base 50)    
Moisture  
Dew Point 62 °F    
Average Humidity 78    
Maximum Humidity 100    
Minimum Humidity 57    
Precipitation  
Precipitation 0.00 in - - ()
Sea Level Pressure  
Sea Level Pressure 30.12 in    
Wind  
Wind Speed 4 mph (NNW)    
Max Wind Speed 16 mph    
Max Gust Speed 20 mph    
Visibility 10 miles    
Events Rain    
Averages and records for this station are not official NWS values.
T = Trace of Precipitation, MM = Missing Value Source: NWS Daily Summary

Daily Weather History Graph

Daily Weather History Graph

Search for Another Location

Airport or City:

Astronomy

Jul. 21, 2019 Rise Set
Actual Time 5:58 AM CDT 9:03 PM CDT
Civil Twilight 5:22 AM CDT 9:38 PM CDT
Nautical Twilight 4:37 AM CDT 10:23 PM CDT
Astronomical Twilight 3:42 AM CDT 11:18 PM CDT
Moon 11:47 PM CDT (7/21) 10:29 AM CDT (7/21)
Length of Visible Light 16h 15m
Length of Day
15h 05m
Waning Gibbous, 80% of the Moon is Illuminated
Jul 21
Waning Gibbous
Jul 24
Last Quarter
Jul 31
New
Aug 7
First Quarter
Aug 15
Full

Hourly Weather History & Observations

Time (CDT) Temp. Dew Point Humidity Pressure Visibility Wind Dir Wind Speed Gust Speed Precip Events Conditions
12:15 AM 64.4 °F 62.6 °F 94% 30.03 in 10.0 mi Calm Calm - N/A   Clear
12:35 AM 64.4 °F 62.6 °F 94% 30.04 in 10.0 mi West 3.5 mph - N/A   Clear
12:36 AM 64.4 °F 62.6 °F 94% 30.04 in 10.0 mi West 3.5 mph - N/A   Clear
12:59 AM 64.4 °F 62.6 °F 94% 30.03 in 10.0 mi Calm Calm - N/A   Clear
1:16 AM 64.4 °F 62.6 °F 94% 30.03 in 10.0 mi Calm Calm - N/A   Clear
1:36 AM 64.4 °F 62.6 °F 94% 30.03 in 10.0 mi Calm Calm - N/A   Clear
1:55 AM 64.4 °F 62.6 °F 94% 30.03 in 10.0 mi Calm Calm - N/A   Clear
1:56 AM 64.4 °F 62.6 °F 94% 30.03 in 10.0 mi Calm Calm - N/A   Clear
2:15 AM 64.4 °F 62.6 °F 94% 30.03 in 10.0 mi NW 3.5 mph - N/A   Clear
2:19 AM 64.4 °F 62.6 °F 94% 30.02 in 10.0 mi WNW 3.5 mph - N/A   Clear
2:37 AM 64.4 °F 62.6 °F 94% 30.03 in 10.0 mi Calm Calm - N/A   Clear
2:56 AM 64.4 °F 62.6 °F 94% 30.02 in 7.0 mi NW 3.5 mph - N/A   Clear
3:15 AM 64.4 °F 62.6 °F 94% 30.03 in 10.0 mi Calm Calm - N/A   Clear
3:16 AM 64.4 °F 62.6 °F 94% 30.03 in 10.0 mi Calm Calm - N/A   Clear
3:35 AM 64.4 °F 62.6 °F 94% 30.03 in 10.0 mi Calm Calm - N/A   Clear
3:36 AM 64.4 °F 62.6 °F 94% 30.03 in 10.0 mi Calm Calm - N/A   Clear
3:58 AM 64.4 °F 62.6 °F 94% 30.03 in 10.0 mi Calm Calm - N/A   Clear
4:16 AM 64.4 °F 62.6 °F 94% 30.04 in 10.0 mi Calm Calm - N/A   Clear
4:35 AM 62.6 °F 62.6 °F 100% 30.05 in 10.0 mi Calm Calm - N/A   Clear
4:36 AM 62.6 °F 62.6 °F 100% 30.05 in 10.0 mi Calm Calm - N/A   Clear
4:55 AM 64.4 °F 62.6 °F 94% 30.06 in 10.0 mi Calm Calm - N/A   Clear
4:56 AM 64.4 °F 62.6 °F 94% 30.06 in 10.0 mi Calm Calm - N/A   Clear
5:15 AM 64.4 °F 62.6 °F 94% 30.04 in 10.0 mi Calm Calm - N/A   Clear
5:19 AM 62.6 °F 60.8 °F 94% 30.04 in 10.0 mi Calm Calm - N/A   Clear
5:38 AM 64.4 °F 62.6 °F 94% 30.04 in 10.0 mi Calm Calm - N/A   Clear
5:56 AM 60.8 °F 60.8 °F 100% 30.05 in 10.0 mi Calm Calm - N/A   Clear
6:15 AM 60.8 °F 60.8 °F 100% 30.05 in 10.0 mi Calm Calm - N/A   Clear
6:16 AM 60.8 °F 60.8 °F 100% 30.05 in 10.0 mi Calm Calm - N/A   Clear
6:35 AM 60.8 °F 60.8 °F 100% 30.07 in 7.0 mi Calm Calm - N/A   Clear
6:36 AM 60.8 °F 60.8 °F 100% 30.07 in 7.0 mi Calm Calm - N/A   Clear
6:58 AM 64.4 °F 62.6 °F 94% 30.09 in 10.0 mi WSW 3.5 mph - N/A   Clear
7:17 AM 64.4 °F 62.6 °F 94% 30.11 in 10.0 mi West 4.6 mph - N/A   Clear
7:36 AM 66.2 °F 64.4 °F 94% 30.12 in 10.0 mi WSW 4.6 mph - N/A   Clear
7:55 AM 66.2 °F 64.4 °F 94% 30.11 in 10.0 mi Calm Calm - N/A   Clear
8:15 AM 68.0 °F 64.4 °F 88% 30.10 in 10.0 mi West 4.6 mph - N/A   Clear
8:37 AM 69.8 °F 66.2 °F 88% 30.10 in 10.0 mi NW 3.5 mph - N/A   Clear
8:55 AM 69.8 °F 66.2 °F 88% 30.10 in 10.0 mi NW 5.8 mph - N/A   Clear
9:15 AM 71.6 °F 66.2 °F 83% 30.10 in 10.0 mi NNW 3.5 mph - N/A   Clear
9:35 AM 73.4 °F 68.0 °F 83% 30.11 in 10.0 mi NNW 3.5 mph - N/A   Clear
9:36 AM 73.4 °F 68.0 °F 83% 30.11 in 10.0 mi NNW 3.5 mph - N/A   Clear
9:59 AM 73.4 °F 68.0 °F 83% 30.12 in 10.0 mi Calm Calm - N/A   Clear
10:16 AM 75.2 °F 66.2 °F 73% 30.12 in 10.0 mi Calm Calm - N/A   Clear
10:36 AM 75.2 °F 66.2 °F 73% 30.12 in 10.0 mi Calm Calm - N/A   Clear
10:55 AM 77.0 °F 66.2 °F 69% 30.13 in 10.0 mi NW 4.6 mph - N/A   Clear
11:15 AM 78.8 °F 66.2 °F 65% 30.13 in 10.0 mi NW 3.5 mph - N/A   Clear
11:19 AM 78.8 °F 66.2 °F 65% 30.13 in 10.0 mi North 3.5 mph - N/A   Clear
11:37 AM 78.8 °F 66.2 °F 65% 30.12 in 10.0 mi NW 4.6 mph - N/A   Clear
11:56 AM 77.0 °F 64.4 °F 65% 30.13 in 10.0 mi NNW 5.8 mph - N/A   Clear
12:15 PM 75.2 °F 64.4 °F 69% 30.13 in 10.0 mi NW 5.8 mph - N/A   Clear
12:16 PM 75.2 °F 64.4 °F 69% 30.13 in 10.0 mi NNW 5.8 mph - N/A   Clear
12:35 PM 77.0 °F 64.4 °F 65% 30.14 in 10.0 mi NNW 8.1 mph - N/A   Clear
12:36 PM 77.0 °F 64.4 °F 65% 30.14 in 10.0 mi NNW 8.1 mph - N/A   Clear
12:58 PM 77.0 °F 66.2 °F 69% 30.14 in 10.0 mi NNW 6.9 mph - N/A   Clear
1:16 PM 78.8 °F 66.2 °F 65% 30.14 in 10.0 mi NNW 9.2 mph - N/A   Clear
1:35 PM 77.0 °F 64.4 °F 65% 30.13 in 10.0 mi NNW 11.5 mph - N/A   Clear
1:36 PM 77.0 °F 64.4 °F 65% 30.13 in 10.0 mi NNW 13.8 mph - N/A   Clear
1:55 PM 77.0 °F 62.6 °F 61% 30.13 in 10.0 mi North 12.7 mph - N/A   Clear
1:56 PM 77.0 °F 62.6 °F 61% 30.13 in 10.0 mi North 11.5 mph - N/A   Clear
2:15 PM 77.0 °F 64.4 °F 65% 30.12 in 10.0 mi North 10.4 mph - N/A   Clear
2:19 PM 78.8 °F 64.4 °F 61% 30.12 in 10.0 mi North 15.0 mph - N/A   Clear
2:38 PM 77.0 °F 64.4 °F 65% 30.12 in 10.0 mi North 12.7 mph - N/A   Clear
2:55 PM 78.8 °F 62.6 °F 57% 30.13 in 10.0 mi North 13.8 mph 18.4 mph N/A   Clear
3:15 PM 75.2 °F 62.6 °F 65% 30.12 in 10.0 mi North 15.0 mph - N/A   Clear
3:16 PM 75.2 °F 62.6 °F 65% 30.13 in 10.0 mi North 16.1 mph - N/A   Clear
3:35 PM 77.0 °F 62.6 °F 61% 30.13 in 10.0 mi North 13.8 mph - N/A   Clear
3:58 PM 77.0 °F 60.8 °F 57% 30.14 in 10.0 mi North 12.7 mph 19.6 mph N/A   Clear
4:17 PM 75.2 °F 60.8 °F 61% 30.15 in 10.0 mi North 11.5 mph - N/A   Clear
4:36 PM 75.2 °F 60.8 °F 61% 30.16 in 10.0 mi North 10.4 mph - N/A   Clear
4:55 PM 75.2 °F 59.0 °F 57% 30.16 in 10.0 mi North 10.4 mph - N/A   Clear
4:56 PM 75.2 °F 59.0 °F 57% 30.15 in 10.0 mi NNW 9.2 mph - N/A   Clear
5:15 PM 75.2 °F 62.6 °F 65% 30.16 in 10.0 mi NNW 10.4 mph - N/A Rain Light Rain
5:37 PM 75.2 °F 60.8 °F 61% 30.15 in 10.0 mi NW 9.2 mph - N/A   Scattered Clouds
5:55 PM 75.2 °F 60.8 °F 61% 30.15 in 10.0 mi North 8.1 mph - N/A   Clear
6:15 PM 73.4 °F 62.6 °F 69% 30.15 in 10.0 mi NW 4.6 mph - N/A   Clear
6:16 PM 73.4 °F 62.6 °F 69% 30.15 in 10.0 mi NW 4.6 mph - N/A   Clear
6:35 PM 75.2 °F 62.6 °F 65% 30.16 in 10.0 mi NNW 6.9 mph - N/A   Scattered Clouds
6:36 PM 75.2 °F 62.6 °F 65% 30.16 in 10.0 mi NNW 8.1 mph - N/A   Scattered Clouds
6:59 PM 75.2 °F 60.8 °F 61% 30.16 in 10.0 mi NNW 13.8 mph - N/A   Scattered Clouds
7:16 PM 75.2 °F 59.0 °F 57% 30.16 in 10.0 mi North 10.4 mph - N/A   Clear
7:36 PM 73.4 °F 59.0 °F 61% 30.16 in 10.0 mi North 12.7 mph - N/A   Clear
7:55 PM 73.4 °F 60.8 °F 65% 30.16 in 10.0 mi North 10.4 mph - N/A   Clear
8:15 PM 73.4 °F 59.0 °F 61% 30.17 in 10.0 mi North 12.7 mph 18.4 mph N/A   Clear
8:19 PM 73.4 °F 59.0 °F 61% 30.17 in 10.0 mi North 15.0 mph 18.4 mph N/A   Clear
8:37 PM 71.6 °F 59.0 °F 64% 30.18 in 10.0 mi North 9.2 mph - N/A   Clear
8:56 PM 69.8 °F 60.8 °F 73% 30.18 in 10.0 mi North 8.1 mph - N/A   Clear
9:15 PM 69.8 °F 59.0 °F 68% 30.18 in 10.0 mi North 9.2 mph - N/A   Clear
9:16 PM 69.8 °F 59.0 °F 68% 30.19 in 10.0 mi North 9.2 mph - N/A   Clear
9:35 PM 68.0 °F 57.2 °F 68% 30.19 in 10.0 mi North 8.1 mph - N/A   Clear
9:36 PM 68.0 °F 57.2 °F 68% 30.19 in 10.0 mi North 8.1 mph - N/A   Clear
9:59 PM 66.2 °F 57.2 °F 73% 30.20 in 10.0 mi NNW 9.2 mph - N/A   Clear
10:16 PM 66.2 °F 57.2 °F 73% 30.20 in 10.0 mi NNW 8.1 mph - N/A   Clear
10:35 PM 64.4 °F 57.2 °F 77% 30.20 in 10.0 mi NNW 6.9 mph - N/A   Clear
10:36 PM 64.4 °F 57.2 °F 77% 30.20 in 10.0 mi NNW 6.9 mph - N/A   Clear
10:55 PM 64.4 °F 57.2 °F 77% 30.21 in 10.0 mi NNW 8.1 mph - N/A   Clear
10:56 PM 64.4 °F 57.2 °F 77% 30.20 in 10.0 mi NNW 8.1 mph - N/A   Clear
11:15 PM 64.4 °F 57.2 °F 77% 30.21 in 10.0 mi NNW 5.8 mph - N/A   Clear
11:19 PM 64.4 °F 59.0 °F 83% 30.21 in 10.0 mi NNW 5.8 mph - N/A   Clear
11:38 PM 64.4 °F 59.0 °F 83% 30.21 in 10.0 mi NW 5.8 mph - N/A   Clear
11:55 PM 64.4 °F 59.0 °F 83% 30.21 in 10.0 mi WNW 5.8 mph - N/A   Clear